Time;durP1;ratioP1;P1;durP2;ratioP2;P2;SDS_P1;SDS_P2;PMS_P1;PMS_P2;Temp;Humidity;BMP_temperature;BMP_pressure;BME280_temperature;BME280_humidity;BME280_pressure;Samples;Min_cycle;Max_cycle;Signal;HPM_P1;HPM_P2
2023/01/17 00:02:07;;;;;;;0.75;0.70;;;3.60;99.90;;;;;;4700111;28;9999900;-77
2023/01/17 00:10:07;;;;;;;0.63;0.63;;;3.60;99.90;;;;;;5059862;28;20031;-77
2023/01/17 00:12:33;;;;;;;0.50;0.50;;;3.60;99.90;;;;;;5057244;28;20849;-77
2023/01/17 00:14:59;;;;;;;0.60;0.60;;;3.60;99.90;;;;;;5061575;28;20629;-77
2023/01/17 00:17:27;;;;;;;0.75;0.60;;;3.60;99.90;;;;;;5060603;28;20403;-77
2023/01/17 01:35:00;;;;;;;0.77;0.77;;;3.50;99.90;;;;;;5062413;28;20093;-78
2023/01/17 01:37:26;;;;;;;1.35;0.93;;;3.50;99.90;;;;;;5061358;28;20036;-78
2023/01/17 01:39:52;;;;;;;0.85;0.85;;;3.50;99.90;;;;;;5069487;28;20035;-79
2023/01/17 01:42:17;;;;;;;0.88;0.70;;;3.50;99.90;;;;;;5063195;28;20028;-78
2023/01/17 01:44:51;;;;;;;0.98;0.70;;;3.40;99.90;;;;;;5062222;28;20024;-78
2023/01/17 01:47:25;;;;;;;0.80;0.60;;;3.50;99.90;;;;;;5068919;28;20029;-78
2023/01/17 01:49:51;;;;;;;0.63;0.63;;;3.50;99.90;;;;;;5067079;28;20421;-78
2023/01/17 01:52:20;;;;;;;0.60;0.60;;;3.40;99.90;;;;;;5053140;28;20028;-78
2023/01/17 01:54:52;;;;;;;0.50;0.43;;;3.50;99.90;;;;;;5061424;28;20099;-79
2023/01/17 01:57:21;;;;;;;1.05;0.40;;;3.40;99.90;;;;;;5065839;28;20537;-78
2023/01/17 01:59:53;;;;;;;0.40;0.40;;;3.40;99.90;;;;;;5057983;28;20072;-78
2023/01/17 02:02:18;;;;;;;0.43;0.43;;;3.40;99.90;;;;;;5060501;28;20663;-78
2023/01/17 02:04:44;;;;;;;0.95;0.50;;;3.40;99.90;;;;;;5059532;28;20043;-78
2023/01/17 02:07:15;;;;;;;0.40;0.40;;;3.40;99.90;;;;;;5061879;28;20048;-78
2023/01/17 02:09:41;;;;;;;0.40;0.40;;;3.40;99.90;;;;;;5067635;28;20028;-79
2023/01/17 02:12:08;;;;;;;0.73;0.60;;;3.40;99.90;;;;;;5056897;28;20013;-79
2023/01/17 02:14:33;;;;;;;0.55;0.50;;;3.40;99.90;;;;;;5063332;28;20050;-78
2023/01/17 02:17:28;;;;;;;0.60;0.60;;;3.40;99.90;;;;;;5060824;28;20469;-79
2023/01/17 02:20:11;;;;;;;0.60;0.60;;;3.40;99.90;;;;;;5059481;28;20016;-78
2023/01/17 02:23:04;;;;;;;0.60;0.60;;;3.30;99.90;;;;;;5059113;28;20331;-79
2023/01/17 02:25:46;;;;;;;0.98;0.68;;;3.30;99.90;;;;;;5061601;28;20496;-78
2023/01/17 02:28:28;;;;;;;0.80;0.80;;;3.30;99.90;;;;;;5060605;28;20097;-78
2023/01/17 02:31:01;;;;;;;2.47;1.10;;;3.30;99.90;;;;;;5061190;28;20028;-78
2023/01/17 02:33:40;;;;;;;0.70;0.70;;;3.30;99.90;;;;;;5065297;28;20055;-79
2023/01/17 02:36:31;;;;;;;0.82;0.82;;;3.30;99.90;;;;;;5055888;28;20039;-79
2023/01/17 02:39:11;;;;;;;1.42;0.80;;;3.30;99.90;;;;;;5057888;28;20115;-78
2023/01/17 02:41:43;;;;;;;1.50;1.05;;;3.30;99.90;;;;;;5060650;28;20212;-78
2023/01/17 02:44:14;;;;;;;1.10;1.00;;;3.30;99.90;;;;;;5055216;28;20040;-80
2023/01/17 02:46:48;;;;;;;1.25;0.80;;;3.30;99.90;;;;;;5059449;28;20783;-79
2023/01/17 02:49:21;;;;;;;1.00;0.90;;;3.20;99.90;;;;;;5065984;28;20094;-79
2023/01/17 02:52:13;;;;;;;2.67;1.00;;;3.30;99.90;;;;;;5056332;28;20024;-79
2023/01/17 02:55:00;;;;;;;2.70;0.90;;;3.20;99.90;;;;;;5055072;28;20059;-78
2023/01/17 02:57:39;;;;;;;2.00;1.00;;;3.20;99.90;;;;;;5068930;28;20016;-79
2023/01/17 03:00:26;;;;;;;1.20;1.10;;;3.20;99.90;;;;;;5060041;28;20041;-79
2023/01/17 03:03:19;;;;;;;1.13;0.88;;;3.30;99.90;;;;;;5054761;28;20113;-79
2023/01/17 03:05:58;;;;;;;1.60;0.80;;;3.30;99.90;;;;;;5065148;28;20103;-78
2023/01/17 03:08:26;;;;;;;2.83;0.85;;;3.30;99.90;;;;;;5061227;28;20048;-78
2023/01/17 03:10:52;;;;;;;0.85;0.80;;;3.30;99.90;;;;;;5052021;28;20036;-78
2023/01/17 03:13:17;;;;;;;1.10;0.80;;;3.30;99.90;;;;;;5059828;28;20086;-79
2023/01/17 03:15:43;;;;;;;0.60;0.60;;;3.30;99.90;;;;;;5061807;28;20025;-78
2023/01/17 03:18:14;;;;;;;0.70;0.70;;;3.30;99.90;;;;;;5060566;28;20123;-79
2023/01/17 03:20:40;;;;;;;1.17;1.00;;;3.30;99.90;;;;;;5059435;28;20433;-79
2023/01/17 03:23:06;;;;;;;0.70;0.70;;;3.30;99.90;;;;;;5063348;28;20029;-79
2023/01/17 03:25:32;;;;;;;0.55;0.55;;;3.30;99.90;;;;;;5061070;28;20045;-79
2023/01/17 03:27:57;;;;;;;1.20;0.60;;;3.30;99.90;;;;;;5063190;28;20033;-78
2023/01/17 03:30:23;;;;;;;1.25;0.50;;;3.30;99.90;;;;;;5060832;28;20031;-79
2023/01/17 03:32:49;;;;;;;1.27;0.65;;;3.30;99.90;;;;;;5065335;28;20131;-79
2023/01/17 03:35:15;;;;;;;0.70;0.65;;;3.30;99.90;;;;;;5057681;28;20033;-78
2023/01/17 03:37:41;;;;;;;0.40;0.40;;;3.20;99.90;;;;;;5059713;28;20048;-79
2023/01/17 03:40:07;;;;;;;0.50;0.50;;;3.30;99.90;;;;;;5063643;28;20480;-79
2023/01/17 03:42:32;;;;;;;0.85;0.50;;;3.20;99.90;;;;;;5059659;28;20099;-79
2023/01/17 03:44:58;;;;;;;0.70;0.60;;;3.20;99.90;;;;;;5066778;28;20124;-79
2023/01/17 03:47:23;;;;;;;0.52;0.52;;;3.20;99.90;;;;;;5060952;28;20036;-78
2023/01/17 03:49:50;;;;;;;0.65;0.40;;;3.20;99.90;;;;;;5066997;28;20379;-79
2023/01/17 03:52:16;;;;;;;0.60;0.60;;;3.20;99.90;;;;;;5063358;28;20055;-79
2023/01/17 03:54:41;;;;;;;0.60;0.60;;;3.20;99.90;;;;;;5063602;28;20742;-79
2023/01/17 03:57:07;;;;;;;1.30;0.70;;;3.10;99.90;;;;;;5072062;28;20039;-79
2023/01/17 03:59:33;;;;;;;1.38;0.85;;;3.10;99.90;;;;;;5066929;28;20040;-79
2023/01/17 04:01:58;;;;;;;0.60;0.60;;;3.10;99.90;;;;;;5067836;28;20264;-78
2023/01/17 04:04:24;;;;;;;1.50;0.60;;;3.10;99.90;;;;;;5058392;28;20473;-79
2023/01/17 04:06:49;;;;;;;0.60;0.60;;;3.10;99.90;;;;;;5062655;28;20411;-79
2023/01/17 04:09:15;;;;;;;1.70;0.65;;;3.10;99.90;;;;;;5054863;28;20036;-79
2023/01/17 04:11:41;;;;;;;2.15;0.70;;;3.10;99.90;;;;;;5056268;28;20362;-79
2023/01/17 04:14:06;;;;;;;0.80;0.80;;;3.10;99.90;;;;;;5066857;28;20032;-79
2023/01/17 04:16:32;;;;;;;0.70;0.70;;;3.10;99.90;;;;;;5062762;28;20073;-79
2023/01/17 04:18:58;;;;;;;0.50;0.50;;;3.10;99.90;;;;;;5060634;28;20040;-79
2023/01/17 04:21:23;;;;;;;0.80;0.80;;;3.00;99.90;;;;;;5063491;28;20024;-79
2023/01/17 04:23:49;;;;;;;0.60;0.60;;;3.00;99.90;;;;;;5065274;28;20059;-80
2023/01/17 04:26:15;;;;;;;1.98;0.75;;;3.00;99.90;;;;;;5064780;28;20033;-79
2023/01/17 04:28:40;;;;;;;0.70;0.70;;;3.00;99.90;;;;;;5059077;28;20028;-79
2023/01/17 04:31:06;;;;;;;1.58;1.08;;;3.00;99.90;;;;;;5058449;28;20025;-79
2023/01/17 04:33:32;;;;;;;0.80;0.80;;;3.00;99.90;;;;;;5068163;28;20028;-79
2023/01/17 04:35:58;;;;;;;2.05;0.60;;;3.00;99.90;;;;;;5054154;28;20028;-79
2023/01/17 04:38:23;;;;;;;0.85;0.75;;;3.00;99.90;;;;;;5063333;28;20028;-80
2023/01/17 04:40:50;;;;;;;0.73;0.73;;;3.00;99.90;;;;;;5056384;28;20089;-79
2023/01/17 04:43:16;;;;;;;0.95;0.70;;;3.00;99.90;;;;;;5062648;28;20039;-80
2023/01/17 04:45:42;;;;;;;2.35;1.10;;;3.00;99.90;;;;;;5060777;28;20028;-79
2023/01/17 04:48:11;;;;;;;0.73;0.73;;;3.00;99.90;;;;;;5071108;28;20418;-79
2023/01/17 04:50:37;;;;;;;1.00;0.90;;;2.90;99.90;;;;;;5064071;28;20041;-79
2023/01/17 04:53:03;;;;;;;1.13;0.70;;;2.90;99.90;;;;;;5062331;28;20509;-79
2023/01/17 04:55:29;;;;;;;0.80;0.80;;;2.90;99.90;;;;;;5057076;28;20040;-79
2023/01/17 04:57:54;;;;;;;0.82;0.82;;;2.80;99.90;;;;;;5076852;28;20056;-80
2023/01/17 05:00:20;;;;;;;1.00;0.98;;;2.80;99.90;;;;;;5074120;28;20578;-79
2023/01/17 05:02:46;;;;;;;0.60;0.60;;;2.80;99.90;;;;;;5056874;28;20021;-80
2023/01/17 05:05:12;;;;;;;1.52;0.70;;;2.80;99.90;;;;;;5053100;28;20090;-79
2023/01/17 05:07:37;;;;;;;1.27;0.90;;;2.90;99.90;;;;;;5059234;28;20036;-79
2023/01/17 05:10:03;;;;;;;0.63;0.63;;;2.80;99.90;;;;;;5058266;28;20366;-80
2023/01/17 05:12:29;;;;;;;0.80;0.80;;;2.80;99.90;;;;;;5051833;28;20044;-80
2023/01/17 05:14:55;;;;;;;1.40;1.30;;;2.80;99.90;;;;;;5060351;28;20415;-80
2023/01/17 05:17:20;;;;;;;3.08;1.40;;;2.80;99.90;;;;;;5061333;28;20093;-80
2023/01/17 05:19:46;;;;;;;1.40;1.30;;;2.70;99.90;;;;;;5061170;28;20421;-79
2023/01/17 05:22:15;;;;;;;1.20;1.10;;;2.70;99.90;;;;;;5052507;28;20136;-79
2023/01/17 05:24:45;;;;;;;4.68;2.45;;;2.70;99.90;;;;;;5055826;28;20030;-80
2023/01/17 05:27:11;;;;;;;2.42;2.00;;;2.60;99.90;;;;;;5060064;28;20680;-80
2023/01/17 05:29:37;;;;;;;2.42;1.98;;;2.60;99.90;;;;;;5059799;28;20032;-80
2023/01/17 05:32:03;;;;;;;1.75;1.65;;;2.60;99.90;;;;;;5055383;28;20036;-80
2023/01/17 05:34:29;;;;;;;1.58;1.48;;;2.60;99.90;;;;;;5059356;28;20515;-79
2023/01/17 05:36:55;;;;;;;1.65;1.55;;;2.60;99.90;;;;;;5066003;28;20024;-80
2023/01/17 05:39:21;;;;;;;2.08;1.35;;;2.60;99.90;;;;;;5060777;28;20032;-80
2023/01/17 05:41:46;;;;;;;1.38;1.17;;;2.60;99.90;;;;;;5067422;28;20038;-79
2023/01/17 05:44:14;;;;;;;1.58;1.48;;;2.60;99.90;;;;;;5051367;28;20036;-79
2023/01/17 05:46:39;;;;;;;3.05;1.88;;;2.50;99.90;;;;;;5063869;28;22243;-80
2023/01/17 05:49:05;;;;;;;2.55;2.05;;;2.50;99.90;;;;;;5063727;28;20040;-80
2023/01/17 05:51:31;;;;;;;3.08;2.33;;;2.50;99.90;;;;;;5059249;28;20111;-80
2023/01/17 05:53:57;;;;;;;3.35;1.67;;;2.60;99.90;;;;;;5063651;28;20025;-80
2023/01/17 05:56:22;;;;;;;3.08;1.63;;;2.50;99.90;;;;;;5066540;28;20013;-80
2023/01/17 05:58:48;;;;;;;2.60;1.75;;;2.50;99.90;;;;;;5068321;28;20027;-80
2023/01/17 06:01:13;;;;;;;2.10;1.80;;;2.50;99.90;;;;;;5055111;28;20037;-80
2023/01/17 06:03:39;;;;;;;3.97;1.70;;;2.50;99.90;;;;;;5062248;28;20028;-80
2023/01/17 06:06:05;;;;;;;2.20;2.00;;;2.60;99.90;;;;;;5058646;28;20064;-80
2023/01/17 06:08:30;;;;;;;3.55;1.70;;;2.60;99.90;;;;;;5076434;28;20036;-81
2023/01/17 06:10:58;;;;;;;3.10;2.00;;;2.50;99.90;;;;;;5057765;28;21085;-80
2023/01/17 06:13:24;;;;;;;2.35;1.75;;;2.50;99.90;;;;;;5068138;28;20037;-80
2023/01/17 06:15:49;;;;;;;5.45;2.00;;;2.50;99.90;;;;;;5076009;28;20093;-80
2023/01/17 06:18:16;;;;;;;1.95;1.77;;;2.50;99.90;;;;;;5067381;28;20034;-79
2023/01/17 06:20:43;;;;;;;3.20;1.90;;;2.60;99.90;;;;;;5057531;28;20028;-80
2023/01/17 06:23:13;;;;;;;3.03;2.22;;;2.60;99.90;;;;;;5069578;28;20115;-80
2023/01/17 06:25:44;;;;;;;4.72;2.35;;;2.60;99.90;;;;;;5064327;28;20116;-79
2023/01/17 06:28:11;;;;;;;3.20;2.08;;;2.50;99.90;;;;;;5067974;28;20107;-80
2023/01/17 06:30:37;;;;;;;4.75;2.28;;;2.50;99.90;;;;;;5061671;28;20109;-80
2023/01/17 06:33:03;;;;;;;3.53;2.45;;;2.50;99.90;;;;;;5059905;28;20120;-80
2023/01/17 06:35:29;;;;;;;5.13;2.58;;;2.40;99.90;;;;;;5067426;28;20017;-81
2023/01/17 06:37:57;;;;;;;3.25;2.50;;;2.40;99.90;;;;;;5062004;28;20390;-81
2023/01/17 06:40:24;;;;;;;3.00;2.28;;;2.40;99.90;;;;;;5075022;28;20519;-80
2023/01/17 06:42:50;;;;;;;5.05;2.10;;;2.40;99.90;;;;;;5060657;28;20020;-81
2023/01/17 06:45:16;;;;;;;4.70;2.50;;;2.30;99.90;;;;;;5061222;28;20086;-80
2023/01/17 06:47:42;;;;;;;3.33;2.13;;;2.30;99.90;;;;;;5066373;28;20035;-81
2023/01/17 06:50:10;;;;;;;4.30;2.20;;;2.30;99.90;;;;;;5066889;28;20429;-81
2023/01/17 06:52:35;;;;;;;3.05;2.10;;;2.30;99.90;;;;;;5054633;28;20725;-80
2023/01/17 06:55:01;;;;;;;6.40;2.33;;;2.30;99.90;;;;;;5068364;28;20024;-80
2023/01/17 06:57:26;;;;;;;5.25;2.50;;;2.30;99.90;;;;;;5050843;28;20655;-80
2023/01/17 06:59:52;;;;;;;6.53;2.40;;;2.30;99.90;;;;;;5049376;28;20029;-80
2023/01/17 07:02:17;;;;;;;5.32;2.80;;;2.30;99.90;;;;;;5044717;28;20052;-81
2023/01/17 07:04:43;;;;;;;6.47;2.85;;;2.20;99.90;;;;;;5050737;28;20067;-81
2023/01/17 07:07:09;;;;;;;4.15;2.75;;;2.20;99.90;;;;;;5054850;28;20085;-81
2023/01/17 07:09:34;;;;;;;5.18;2.78;;;2.20;99.90;;;;;;5047435;28;20473;-80
2023/01/17 07:12:00;;;;;;;4.28;3.03;;;2.20;99.90;;;;;;5054952;28;20028;-80
2023/01/17 07:14:27;;;;;;;6.75;3.45;;;2.20;99.90;;;;;;5053623;28;20024;-80
2023/01/17 07:16:53;;;;;;;7.13;3.33;;;2.20;99.90;;;;;;5057534;28;20047;-80
2023/01/17 07:19:19;;;;;;;5.97;3.33;;;2.10;99.90;;;;;;5058755;28;20484;-80
2023/01/17 07:21:45;;;;;;;4.30;2.67;;;2.10;99.90;;;;;;5053107;28;20103;-81
2023/01/17 07:24:10;;;;;;;7.72;3.80;;;2.10;99.90;;;;;;5041208;28;20081;-81
2023/01/17 07:26:37;;;;;;;5.05;2.92;;;2.00;99.90;;;;;;5059301;28;20056;-80
2023/01/17 07:29:04;;;;;;;7.13;3.45;;;2.00;99.90;;;;;;5061986;28;20036;-80
2023/01/17 07:31:32;;;;;;;5.28;2.80;;;2.00;99.90;;;;;;5055517;28;20029;-80
2023/01/17 07:33:58;;;;;;;3.65;2.53;;;2.00;99.90;;;;;;5051888;28;20025;-81
2023/01/17 07:36:24;;;;;;;8.75;4.35;;;1.90;99.90;;;;;;5060912;28;20116;-80
2023/01/17 07:38:49;;;;;;;5.72;3.60;;;1.90;99.90;;;;;;5046504;28;21191;-80
2023/01/17 07:41:15;;;;;;;6.80;3.40;;;1.90;99.90;;;;;;5057844;28;20082;-81
2023/01/17 07:43:41;;;;;;;6.75;3.35;;;1.80;99.90;;;;;;5052653;28;20392;-81
2023/01/17 07:46:06;;;;;;;6.30;3.97;;;1.80;99.90;;;;;;5063992;28;20029;-81
2023/01/17 07:48:32;;;;;;;3.42;2.30;;;1.80;99.90;;;;;;5061136;28;20654;-81
2023/01/17 07:50:58;;;;;;;5.72;2.40;;;1.80;99.90;;;;;;5057535;28;20024;-81
2023/01/17 07:53:29;;;;;;;2.92;2.42;;;1.80;99.90;;;;;;5058672;28;20028;-84
2023/01/17 07:55:58;;;;;;;4.15;2.80;;;1.80;99.90;;;;;;5078850;28;20062;-81
2023/01/17 07:58:24;;;;;;;5.30;3.58;;;1.80;99.90;;;;;;5072750;28;21148;-82
2023/01/17 08:00:49;;;;;;;3.88;3.20;;;1.80;99.90;;;;;;5059212;28;20036;-81
2023/01/17 08:03:16;;;;;;;10.13;5.03;;;1.80;99.90;;;;;;5061026;28;20032;-81
2023/01/17 08:05:51;;;;;;;7.18;4.40;;;1.80;99.90;;;;;;5060025;28;20029;-81
2023/01/17 08:08:17;;;;;;;7.82;5.07;;;1.80;99.90;;;;;;5056849;28;20673;-81
2023/01/17 08:10:42;;;;;;;11.50;8.00;;;1.80;99.90;;;;;;5057315;28;20016;-82
2023/01/17 08:13:08;;;;;;;11.68;6.88;;;1.90;99.90;;;;;;5061778;28;20035;-81
2023/01/17 08:15:34;;;;;;;8.52;4.55;;;1.90;99.90;;;;;;5057561;28;20025;-81
2023/01/17 08:18:00;;;;;;;5.80;3.42;;;1.90;99.90;;;;;;5061504;28;20048;-82
2023/01/17 08:20:26;;;;;;;6.90;2.97;;;1.90;99.90;;;;;;5060036;28;20475;-82
2023/01/17 08:22:54;;;;;;;4.35;2.70;;;2.00;99.90;;;;;;5068899;28;20119;-81
2023/01/17 08:25:21;;;;;;;4.22;2.60;;;2.00;99.90;;;;;;5061927;28;20043;-81
2023/01/17 08:27:48;;;;;;;6.50;2.97;;;2.00;99.90;;;;;;5063581;28;20377;-81
2023/01/17 08:30:14;;;;;;;5.63;3.15;;;2.10;99.90;;;;;;5066913;28;20032;-81
2023/01/17 08:32:39;;;;;;;8.20;3.45;;;2.10;99.90;;;;;;5060884;28;20533;-81
2023/01/17 08:35:07;;;;;;;7.90;4.60;;;2.10;99.90;;;;;;5062615;28;20020;-81
2023/01/17 08:37:33;;;;;;;10.77;4.60;;;2.20;99.90;;;;;;5055227;28;20113;-81
2023/01/17 08:39:59;;;;;;;6.68;4.38;;;2.20;99.90;;;;;;5059143;28;20020;-81
2023/01/17 08:42:25;;;;;;;6.00;4.15;;;2.30;99.90;;;;;;5062464;28;20055;-81
2023/01/17 08:44:51;;;;;;;5.78;4.07;;;2.30;99.90;;;;;;5063721;28;20473;-81
2023/01/17 08:47:16;;;;;;;7.20;5.15;;;2.40;99.90;;;;;;5066032;28;20039;-81
2023/01/17 08:49:42;;;;;;;14.00;8.30;;;2.40;99.90;;;;;;5061086;28;20037;-81
2023/01/17 08:52:08;;;;;;;8.07;4.72;;;2.40;99.90;;;;;;5060133;28;20424;-81
2023/01/17 08:54:34;;;;;;;10.82;5.38;;;2.40;99.90;;;;;;5053691;28;20188;-81
2023/01/17 08:57:02;;;;;;;9.13;4.80;;;2.50;99.90;;;;;;5058592;28;20086;-80
2023/01/17 08:59:28;;;;;;;9.52;5.22;;;2.40;99.90;;;;;;5065720;28;20024;-79
2023/01/17 09:01:54;;;;;;;6.75;4.63;;;2.40;99.90;;;;;;5057214;28;20086;-81
2023/01/17 09:04:19;;;;;;;9.68;5.32;;;2.40;99.90;;;;;;5056680;28;20051;-81
2023/01/17 09:06:47;;;;;;;9.40;5.53;;;2.40;99.90;;;;;;5053764;28;20028;-80
2023/01/17 09:09:13;;;;;;;8.98;4.55;;;2.30;99.90;;;;;;5055478;28;20032;-81
2023/01/17 09:11:39;;;;;;;9.90;5.60;;;2.30;99.90;;;;;;5061310;28;20020;-80
2023/01/17 09:14:05;;;;;;;4.40;3.30;;;2.30;99.90;;;;;;5055114;28;20553;-81
2023/01/17 09:16:31;;;;;;;6.15;3.88;;;2.20;99.90;;;;;;5054788;28;20031;-80
2023/01/17 09:18:57;;;;;;;6.55;3.60;;;2.20;99.90;;;;;;5062243;28;20476;-81
2023/01/17 09:21:23;;;;;;;5.63;3.80;;;2.20;99.90;;;;;;5057576;28;20523;-79
2023/01/17 09:23:49;;;;;;;6.68;3.70;;;2.10;99.90;;;;;;5053492;28;20032;-80
2023/01/17 09:26:22;;;;;;;7.47;3.70;;;2.10;99.90;;;;;;5059852;28;20029;-79
2023/01/17 09:28:47;;;;;;;;;;;2.10;99.90;;;;;;5067900;28;20039;-82
2023/01/17 09:31:14;;;;;;;9.88;4.10;;;2.00;99.90;;;;;;5054308;28;19912;-82
2023/01/17 09:33:42;;;;;;;7.50;4.28;;;2.00;99.90;;;;;;5068287;28;20021;-77
2023/01/17 09:36:09;;;;;;;7.63;4.35;;;2.00;99.90;;;;;;5064142;28;20035;-78
2023/01/17 09:38:36;;;;;;;6.50;4.00;;;2.00;99.90;;;;;;5055058;28;20670;-78
2023/01/17 09:41:02;;;;;;;7.78;4.55;;;2.00;99.90;;;;;;5049113;28;20454;-80
2023/01/17 09:43:43;;;;;;;11.02;5.03;;;2.00;99.90;;;;;;5051040;28;20020;-82
2023/01/17 09:46:31;;;;;;;9.23;4.82;;;2.00;99.90;;;;;;5061169;28;20041;-81
2023/01/17 09:49:03;;;;;;;8.18;4.88;;;2.10;99.90;;;;;;5083243;28;20040;-77
2023/01/17 09:51:29;;;;;;;9.65;4.68;;;2.20;99.90;;;;;;5064553;28;20025;-79
2023/01/17 09:53:55;;;;;;;9.75;5.90;;;2.30;99.90;;;;;;5064669;28;20024;-82
2023/01/17 09:56:33;;;;;;;20.48;9.77;;;2.50;99.90;;;;;;5055800;28;20032;-77
2023/01/17 09:59:28;;;;;;;11.60;7.10;;;2.70;99.90;;;;;;5051956;28;20373;-75
2023/01/17 10:02:39;;;;;;;6.97;5.40;;;3.00;99.90;;;;;;5045086;28;20075;-73
2023/01/17 10:05:41;;;;;;;19.17;9.98;;;3.20;99.90;;;;;;5038437;28;20024;-75
2023/01/17 10:08:31;;;;;;;10.40;5.03;;;3.30;99.90;;;;;;5060318;28;20117;-74
2023/01/17 10:11:24;;;;;;;7.45;4.20;;;3.30;99.90;;;;;;5063413;28;20025;-73
2023/01/17 10:13:56;;;;;;;8.00;4.78;;;3.30;99.90;;;;;;5055832;28;20112;-75
2023/01/17 10:16:41;;;;;;;18.08;8.98;;;3.40;99.90;;;;;;5059892;28;20153;-76
2023/01/17 10:19:30;;;;;;;11.43;5.75;;;3.30;99.90;;;;;;5063636;28;20029;-75
2023/01/17 10:22:56;;;;;;;7.57;4.28;;;3.30;99.90;;;;;;5057202;28;20025;-75
2023/01/17 10:26:00;;;;;;;9.52;5.22;;;3.30;99.90;;;;;;5002285;28;20112;-74
2023/01/17 10:28:39;;;;;;;8.80;5.10;;;3.40;99.90;;;;;;4961419;28;20414;-74
2023/01/17 10:31:17;;;;;;;8.23;4.57;;;3.40;99.90;;;;;;5064485;28;20125;-75
2023/01/17 10:33:48;;;;;;;9.65;6.10;;;3.40;99.90;;;;;;5060216;28;20028;-74
2023/01/17 10:36:19;;;;;;;14.57;6.32;;;3.50;99.90;;;;;;5070181;28;20028;-74
2023/01/17 10:38:49;;;;;;;5.38;3.92;;;3.50;99.90;;;;;;5054190;28;20028;-74
2023/01/17 10:41:33;;;;;;;9.05;5.10;;;3.60;99.90;;;;;;5049303;28;20017;-74
2023/01/17 10:44:19;;;;;;;8.27;5.70;;;3.70;99.90;;;;;;5056763;28;20037;-75
2023/01/17 10:47:08;;;;;;;7.40;4.60;;;3.70;99.90;;;;;;5075766;28;20441;-75
2023/01/17 10:49:41;;;;;;;6.15;3.50;;;3.70;99.90;;;;;;5048197;28;20033;-74
2023/01/17 10:52:37;;;;;;;5.13;3.55;;;3.60;99.90;;;;;;5065337;28;20171;-75
2023/01/17 10:55:37;;;;;;;4.45;3.20;;;3.60;99.90;;;;;;5052385;28;20062;-76
2023/01/17 10:58:04;;;;;;;8.52;6.03;;;3.60;99.90;;;;;;5058523;28;20036;-76
2023/01/17 11:00:32;;;;;;;6.47;4.50;;;3.70;99.90;;;;;;5070287;28;20021;-77
2023/01/17 11:03:00;;;;;;;5.93;3.15;;;3.80;99.90;;;;;;5077867;28;20028;-76
2023/01/17 11:05:28;;;;;;;4.00;2.67;;;4.00;99.90;;;;;;5070245;28;20043;-76
2023/01/17 11:07:58;;;;;;;3.72;2.50;;;4.20;99.90;;;;;;5070030;28;20115;-77
2023/01/17 11:10:43;;;;;;;4.47;2.58;;;4.40;99.90;;;;;;5059016;28;20082;-76
2023/01/17 11:13:28;;;;;;;3.55;2.85;;;4.60;99.90;;;;;;5061057;28;20051;-77
2023/01/17 11:15:57;;;;;;;4.10;2.35;;;4.80;99.90;;;;;;5065031;28;20032;-76
2023/01/17 11:18:33;;;;;;;4.68;2.50;;;4.80;99.90;;;;;;5064638;28;20489;-76
2023/01/17 11:21:10;;;;;;;4.03;2.80;;;4.80;99.90;;;;;;5062979;28;20036;-76
2023/01/17 11:23:40;;;;;;;2.00;1.70;;;4.80;99.90;;;;;;5061268;28;20532;-77
2023/01/17 11:26:10;;;;;;;2.53;1.30;;;4.70;99.90;;;;;;5064725;28;20392;-76
2023/01/17 11:28:37;;;;;;;2.08;1.20;;;4.60;99.90;;;;;;5072759;28;20044;-76
2023/01/17 11:31:06;;;;;;;3.28;2.10;;;4.50;99.90;;;;;;5067537;28;20111;-76
2023/01/17 11:33:48;;;;;;;2.25;1.75;;;4.40;99.90;;;;;;5069110;28;20114;-76
2023/01/17 11:36:23;;;;;;;2.28;1.23;;;4.30;99.90;;;;;;5056391;28;20056;-76
2023/01/17 11:39:01;;;;;;;1.67;0.90;;;;;;;;;;5052680;28;20603;-76
2023/01/17 11:41:32;;;;;;;3.28;1.05;;;;;;;;;;5061997;28;20848;-76
2023/01/17 11:43:59;;;;;;;2.25;1.20;;;;;;;;;;5061746;28;20047;-76
2023/01/17 11:46:29;;;;;;;1.90;1.40;;;;;;;;;;5062161;28;20032;-76
2023/01/17 11:48:56;;;;;;;3.28;1.58;;;;;;;;;;5080055;28;20040;-76
2023/01/17 11:51:22;;;;;;;2.05;1.00;;;;;;;;;;5062848;28;20519;-76
2023/01/17 11:53:48;;;;;;;3.75;1.17;;;;;;;;;;5070984;28;20033;-76
2023/01/17 11:56:26;;;;;;;4.50;1.30;;;;;;;;;;5064738;28;20111;-76
2023/01/17 11:58:52;;;;;;;3.38;1.20;;;;;;;;;;5059013;28;20034;-76
2023/01/17 12:01:26;;;;;;;3.17;1.38;;;;;;;;;;5066331;28;20048;-76
2023/01/17 12:04:10;;;;;;;1.75;1.10;;;;;;;;;;5065780;28;20056;-76
2023/01/17 12:06:48;;;;;;;1.65;1.10;;;;;;;;;;5063397;28;20032;-76
2023/01/17 12:09:32;;;;;;;3.03;1.30;;;;;;;;;;5063949;28;20037;-76
2023/01/17 12:15:01;;;;;;;12.50;6.60;;;;;;;;;;5066258;28;20035;-76
2023/01/17 12:17:49;;;;;;;13.00;8.07;;;;;;;;;;5060578;28;20443;-77
2023/01/17 12:20:19;;;;;;;12.57;7.72;;;;;;;;;;5059725;28;20025;-76
2023/01/17 12:23:07;;;;;;;11.48;7.50;;;;;;;;;;5077642;28;20055;-77
2023/01/17 12:25:41;;;;;;;7.13;3.50;;;;;;;;;;5059732;28;20103;-76
2023/01/17 12:28:26;;;;;;;8.13;4.45;;;;;;;;;;5059318;28;20217;-76
2023/01/17 12:31:17;;;;;;;17.23;8.63;;;;;;;;;;5055721;28;20021;-76
2023/01/17 12:33:58;;;;;;;9.07;5.50;;;;;;;;;;5060228;28;20029;-77
2023/01/17 12:36:33;;;;;;;8.00;4.78;;;;;;;;;;5060853;28;20086;-76
2023/01/17 12:39:02;;;;;;;9.70;5.30;;;;;;;;;;5068481;28;20036;-76
2023/01/17 12:41:33;;;;;;;5.93;2.70;;;;;;;;;;5069560;28;20157;-76
2023/01/17 12:43:59;;;;;;;3.17;1.60;;;4.30;99.90;;;;;;5063819;28;20060;-74
2023/01/17 12:46:25;;;;;;;2.17;1.50;;;4.30;99.90;;;;;;5059800;28;20147;-73
2023/01/17 12:48:56;;;;;;;5.18;1.98;;;4.50;99.90;;;;;;5054036;28;20128;-73
2023/01/17 12:51:39;;;;;;;4.03;1.10;;;4.70;99.90;;;;;;5073032;28;20039;-74
2023/01/17 12:54:26;;;;;;;1.92;0.93;;;4.90;99.90;;;;;;5065498;28;20033;-73
2023/01/17 12:57:05;;;;;;;2.72;0.80;;;5.10;99.90;;;;;;5080096;28;20028;-74
2023/01/17 12:59:39;;;;;;;4.38;1.23;;;5.30;99.90;;;;;;5062151;28;20044;-73
2023/01/17 13:02:32;;;;;;;3.38;1.20;;;5.50;99.90;;;;;;5061194;28;20040;-73
2023/01/17 13:05:17;;;;;;;4.93;1.77;;;5.60;99.90;;;;;;5072335;28;20511;-75
2023/01/17 13:07:57;;;;;;;2.90;1.90;;;5.90;99.90;;;;;;5065486;28;20059;-75
2023/01/17 13:10:37;;;;;;;3.40;1.63;;;5.90;99.90;;;;;;5062849;28;20032;-74
2023/01/17 13:13:22;;;;;;;4.15;1.55;;;6.00;99.90;;;;;;5064734;28;20393;-74
2023/01/17 13:15:50;;;;;;;3.47;1.67;;;6.10;99.90;;;;;;5071700;28;20049;-75
2023/01/17 13:18:24;;;;;;;2.00;0.90;;;6.10;99.90;;;;;;5068422;28;20067;-75
2023/01/17 13:21:05;;;;;;;4.03;1.30;;;6.10;99.90;;;;;;5061128;28;20086;-75
2023/01/17 13:23:58;;;;;;;3.08;1.30;;;6.00;99.90;;;;;;5063880;28;20036;-75
2023/01/17 13:26:26;;;;;;;3.17;1.02;;;6.00;99.90;;;;;;5067149;28;20032;-75
2023/01/17 13:28:59;;;;;;;1.55;0.77;;;6.00;99.90;;;;;;5048203;28;20044;-74
2023/01/17 13:31:24;;;;;;;4.38;1.20;;;6.10;99.90;;;;;;5048037;28;20025;-75
2023/01/17 13:34:31;;;;;;;1.83;1.05;;;6.10;99.90;;;;;;5065481;28;20244;-75
2023/01/17 13:37:15;;;;;;;3.90;1.25;;;6.10;99.90;;;;;;5031732;28;20094;-75
2023/01/17 13:39:59;;;;;;;1.55;0.90;;;6.10;99.90;;;;;;5061925;28;20228;-75
2023/01/17 13:42:40;;;;;;;2.42;0.90;;;6.10;99.90;;;;;;5048370;28;20020;-75
2023/01/17 13:45:08;;;;;;;3.13;0.80;;;6.10;99.90;;;;;;5067244;28;20117;-75
2023/01/17 13:47:37;;;;;;;3.92;2.80;;;6.00;99.90;;;;;;5074828;28;20531;-74
2023/01/17 13:50:05;;;;;;;2.40;1.10;;;6.00;99.90;;;;;;5063950;28;20048;-75
2023/01/17 13:52:31;;;;;;;3.28;1.48;;;6.00;99.90;;;;;;5056746;28;20885;-74
2023/01/17 13:55:00;;;;;;;4.05;1.20;;;5.90;99.90;;;;;;5068708;28;20158;-74
2023/01/17 13:57:26;;;;;;;4.57;1.30;;;5.80;99.90;;;;;;5072259;28;20029;-74
2023/01/17 13:59:53;;;;;;;3.92;1.00;;;5.60;99.90;;;;;;5061391;28;20036;-74
2023/01/17 14:02:30;;;;;;;2.55;1.00;;;5.50;99.90;;;;;;5061884;28;20166;-74
2023/01/17 14:05:09;;;;;;;3.95;1.08;;;5.50;99.90;;;;;;5064751;28;20025;-74
2023/01/17 14:07:42;;;;;;;3.33;1.23;;;5.40;99.90;;;;;;5058173;28;20119;-74
2023/01/17 14:10:22;;;;;;;3.55;1.00;;;5.40;99.90;;;;;;5073390;28;20052;-74
2023/01/17 14:12:48;;;;;;;2.65;1.30;;;5.30;99.90;;;;;;5064275;28;22635;-74
2023/01/17 14:15:26;;;;;;;3.63;1.33;;;5.10;99.90;;;;;;5074051;28;20024;-75
2023/01/17 14:18:03;;;;;;;5.65;1.83;;;5.10;99.90;;;;;;5067640;28;20025;-75
2023/01/17 14:20:48;;;;;;;8.27;3.80;;;5.00;99.90;;;;;;5071950;28;20034;-75
2023/01/17 14:23:28;;;;;;;3.60;1.80;;;5.00;99.90;;;;;;5075685;28;20064;-74
2023/01/17 14:25:58;;;;;;;13.02;5.57;;;4.90;99.90;;;;;;5070167;28;20440;-75
2023/01/17 14:28:28;;;;;;;12.13;5.38;;;4.80;99.90;;;;;;5063548;28;20519;-75
2023/01/17 14:30:55;;;;;;;5.45;2.03;;;4.80;99.90;;;;;;5057694;28;20383;-73
2023/01/17 14:33:24;;;;;;;8.55;3.05;;;4.70;99.90;;;;;;5047781;28;20068;-73
2023/01/17 14:36:30;;;;;;;5.60;2.35;;;4.70;99.90;;;;;;5057750;28;20040;-72
2023/01/17 14:38:56;;;;;;;5.22;1.80;;;4.60;99.90;;;;;;5047252;28;20067;-73
2023/01/17 14:41:26;;;;;;;4.35;1.40;;;4.50;99.90;;;;;;5060884;28;20066;-73
2023/01/17 14:43:53;;;;;;;4.43;1.98;;;4.50;99.90;;;;;;5075467;28;20025;-73
2023/01/17 14:46:25;;;;;;;6.07;2.92;;;4.50;99.90;;;;;;5063563;28;20556;-73
2023/01/17 14:48:59;;;;;;;2.78;1.73;;;4.40;99.90;;;;;;5065406;28;20051;-73